createdAt,value
2022-09-21T00:01:27.668Z,57.25
2022-09-21T00:04:29.424Z,57.51
2022-09-21T00:07:30.904Z,57.37
2022-09-21T00:10:32.912Z,57.38
2022-09-21T00:13:37.382Z,57.36
2022-09-21T00:16:40.486Z,57.30
2022-09-21T00:19:42.140Z,57.37
2022-09-21T00:22:44.193Z,57.34
2022-09-21T00:25:45.717Z,57.33
2022-09-21T00:28:47.553Z,57.23
2022-09-21T00:31:49.086Z,57.18
2022-09-21T00:34:52.021Z,57.34
2022-09-21T00:37:53.562Z,57.35
2022-09-21T00:40:55.046Z,57.19
2022-09-21T00:44:18.464Z,57.21
2022-09-21T00:47:26.743Z,57.27
2022-09-21T00:50:28.448Z,57.37
2022-09-21T00:53:32.106Z,57.37
2022-09-21T00:56:36.790Z,57.39
2022-09-21T00:59:40.111Z,57.43
2022-09-21T01:02:41.899Z,57.48
2022-09-21T01:05:43.510Z,57.54
2022-09-21T01:08:52.744Z,57.60
2022-09-21T01:12:00.395Z,57.44
2022-09-21T01:15:16.852Z,57.47
2022-09-21T01:18:30.368Z,57.59
2022-09-21T01:21:40.252Z,57.59
2022-09-21T01:24:59.928Z,57.45
2022-09-21T01:28:08.516Z,57.60
2022-09-21T01:31:18.183Z,57.53
2022-09-21T01:34:30.417Z,57.59
2022-09-21T01:37:42.503Z,57.56
2022-09-21T01:40:50.353Z,57.49
2022-09-21T01:43:57.567Z,57.50
2022-09-21T01:47:02.561Z,57.52
2022-09-21T01:50:08.474Z,57.59
2022-09-21T01:53:41.240Z,57.59
2022-09-21T01:57:07.539Z,57.44
2022-09-21T02:00:09.751Z,57.50
2022-09-21T02:03:25.552Z,57.54
2022-09-21T02:06:29.038Z,57.59
2022-09-21T02:09:31.201Z,57.67
2022-09-21T02:12:33.179Z,57.74
2022-09-21T02:16:07.908Z,57.72
2022-09-21T02:19:31.829Z,57.74
2022-09-21T02:22:38.033Z,57.60
2022-09-21T02:25:45.316Z,57.74
2022-09-21T02:29:07.747Z,57.64
2022-09-21T02:32:27.633Z,57.81
2022-09-21T02:36:13.963Z,57.76
2022-09-21T02:39:25.076Z,57.63
2022-09-21T02:42:31.447Z,57.78
2022-09-21T02:45:40.255Z,57.79
2022-09-21T02:48:49.401Z,57.84
2022-09-21T02:51:53.768Z,57.78
2022-09-21T02:54:56.636Z,57.87
2022-09-21T02:58:03.244Z,57.77
2022-09-21T03:01:07.724Z,57.85
2022-09-21T03:04:10.087Z,57.78
2022-09-21T03:07:11.608Z,57.85
2022-09-21T03:10:13.157Z,57.80
2022-09-21T03:13:15.088Z,57.75
2022-09-21T03:16:16.717Z,57.71
2022-09-21T03:19:18.243Z,57.74
2022-09-21T03:22:21.299Z,57.69
2022-09-21T03:25:22.965Z,57.79
2022-09-21T03:28:24.580Z,57.66
2022-09-21T03:31:26.142Z,57.65
2022-09-21T03:34:27.694Z,57.78
2022-09-21T03:37:31.152Z,57.80
2022-09-21T03:40:33.634Z,57.75
2022-09-21T03:43:35.352Z,57.80
2022-09-21T03:46:36.887Z,57.82
2022-09-21T03:49:38.974Z,57.76
2022-09-21T03:52:41.340Z,57.88
2022-09-21T03:55:43.302Z,57.89
2022-09-21T03:58:44.933Z,57.70
2022-09-21T04:01:46.703Z,57.83
2022-09-21T04:04:48.259Z,58.02
2022-09-21T04:07:50.162Z,58.01
2022-09-21T04:10:51.724Z,58.01
2022-09-21T04:13:56.921Z,58.01
2022-09-21T04:16:58.720Z,58.01
2022-09-21T04:20:00.975Z,58.05
2022-09-21T04:23:02.496Z,58.02
2022-09-21T04:26:04.111Z,57.88
2022-09-21T04:29:06.585Z,57.93
2022-09-21T04:32:08.284Z,57.92
2022-09-21T04:35:10.782Z,58.11
2022-09-21T04:38:13.684Z,57.95
2022-09-21T04:41:16.122Z,57.90
2022-09-21T04:44:20.552Z,58.00
2022-09-21T04:47:23.934Z,57.86
2022-09-21T04:50:25.744Z,57.89
2022-09-21T04:53:27.504Z,58.43
2022-09-21T04:56:29.103Z,58.15
2022-09-21T04:59:30.656Z,58.40
2022-09-21T05:02:32.197Z,58.24
2022-09-21T05:05:33.735Z,58.20
2022-09-21T05:08:53.925Z,58.11
2022-09-21T05:11:55.797Z,58.12
2022-09-21T05:14:57.556Z,58.12
2022-09-21T05:17:59.143Z,58.45
2022-09-21T05:21:02.207Z,58.42
2022-09-21T05:24:03.895Z,58.33
2022-09-21T05:27:06.433Z,58.30
2022-09-21T05:30:10.262Z,58.08
2022-09-21T05:33:16.345Z,58.08
2022-09-21T05:36:24.169Z,58.49
2022-09-21T05:39:26.028Z,58.13
2022-09-21T05:42:27.889Z,58.27
2022-09-21T05:45:29.969Z,58.11
2022-09-21T05:48:40.359Z,58.07
2022-09-21T05:51:54.721Z,58.10
2022-09-21T05:55:26.925Z,58.15
2022-09-21T05:58:52.487Z,58.35
2022-09-21T06:02:18.760Z,58.34
2022-09-21T06:05:20.936Z,58.18
2022-09-21T06:08:22.689Z,58.29
2022-09-21T06:11:24.440Z,58.25
2022-09-21T06:14:26.634Z,58.24
2022-09-21T06:17:28.259Z,58.19
2022-09-21T06:20:29.892Z,58.02
2022-09-21T06:23:31.487Z,58.20
2022-09-21T06:26:33.096Z,58.14
2022-09-21T06:29:34.632Z,58.02
2022-09-21T06:32:36.293Z,58.16
2022-09-21T06:35:37.886Z,58.06
2022-09-21T06:38:39.513Z,58.11
2022-09-21T06:41:41.267Z,58.28
2022-09-21T06:44:42.879Z,58.24
2022-09-21T06:47:48.350Z,58.22
2022-09-21T06:50:50.868Z,58.21
2022-09-21T06:53:56.865Z,58.26
2022-09-21T06:57:00.179Z,58.36
2022-09-21T07:00:02.239Z,58.38
2022-09-21T07:03:03.962Z,58.40
2022-09-21T07:06:06.595Z,58.25
2022-09-21T07:12:29.834Z,58.56
2022-09-21T07:15:32.944Z,58.51
2022-09-21T07:18:42.634Z,58.68
2022-09-21T07:21:44.993Z,58.86
2022-09-21T07:24:46.652Z,58.90
2022-09-21T07:27:48.248Z,58.98
2022-09-21T07:30:50.052Z,58.87
2022-09-21T07:33:57.088Z,58.94
2022-09-21T07:36:58.732Z,58.95
2022-09-21T07:40:02.996Z,58.80
2022-09-21T07:43:04.723Z,58.92
2022-09-21T07:46:07.997Z,58.87
2022-09-21T07:49:11.708Z,58.71
2022-09-21T07:52:13.795Z,58.87
2022-09-21T07:55:15.604Z,58.84
2022-09-21T07:58:35.861Z,58.79
2022-09-21T08:01:40.486Z,58.89
2022-09-21T08:04:42.080Z,58.95
2022-09-21T08:07:43.638Z,58.99
2022-09-21T08:10:45.183Z,59.01
2022-09-21T08:13:47.355Z,58.91
2022-09-21T08:16:49.333Z,58.83
2022-09-21T08:19:51.015Z,58.83
2022-09-21T08:22:53.723Z,58.85
2022-09-21T08:26:01.751Z,58.95
2022-09-21T08:29:03.903Z,58.99
2022-09-21T08:32:05.760Z,58.94
2022-09-21T08:35:09.027Z,58.81
2022-09-21T08:38:10.980Z,58.87
2022-09-21T08:41:30.940Z,58.85
2022-09-21T08:44:41.283Z,58.81
2022-09-21T08:47:45.656Z,58.81
2022-09-21T08:50:54.372Z,58.96
2022-09-21T08:54:02.324Z,58.92
2022-09-21T08:57:05.751Z,59.02
2022-09-21T09:00:14.669Z,58.87
2022-09-21T09:03:46.049Z,58.90
2022-09-21T09:06:57.255Z,58.84
2022-09-21T09:10:17.186Z,58.90
2022-09-21T09:13:18.644Z,58.85
2022-09-21T09:16:34.824Z,58.83
2022-09-21T09:19:51.712Z,58.86
2022-09-21T09:23:14.174Z,58.83
2022-09-21T09:26:24.943Z,58.84
2022-09-21T09:29:46.923Z,58.90
2022-09-21T09:33:06.312Z,58.86
2022-09-21T09:36:12.656Z,58.81
2022-09-21T09:39:16.168Z,58.74
2022-09-21T09:42:36.028Z,58.81
2022-09-21T09:45:55.631Z,59.16
2022-09-21T09:49:17.317Z,58.96
2022-09-21T09:52:18.928Z,58.79
2022-09-21T09:55:34.418Z,58.92
2022-09-21T09:58:57.660Z,58.77
2022-09-21T10:02:03.178Z,58.66
2022-09-21T10:05:06.531Z,58.58
2022-09-21T10:08:48.519Z,58.95
2022-09-21T10:11:51.393Z,58.61
2022-09-21T10:14:56.602Z,58.24
2022-09-21T10:18:16.731Z,58.11
2022-09-21T10:21:37.065Z,58.11
2022-09-21T10:24:40.761Z,58.14
2022-09-21T10:27:47.435Z,58.05
2022-09-21T10:30:49.355Z,57.93
2022-09-21T10:33:54.617Z,57.47
2022-09-21T10:36:59.133Z,57.84
2022-09-21T10:40:01.676Z,57.43
2022-09-21T10:43:04.264Z,57.50
2022-09-21T10:46:06.045Z,57.29
2022-09-21T10:49:17.401Z,57.55
2022-09-21T10:52:23.594Z,57.42
2022-09-21T10:55:28.197Z,57.32
2022-09-21T10:58:30.955Z,57.10
2022-09-21T11:01:32.669Z,56.99
2022-09-21T11:04:53.316Z,57.08
2022-09-21T11:08:07.066Z,56.86
2022-09-21T11:11:30.593Z,56.97
2022-09-21T11:14:59.425Z,56.92
2022-09-21T11:18:11.678Z,57.02
2022-09-21T11:21:17.662Z,56.62
2022-09-21T11:24:46.927Z,56.45
2022-09-21T11:28:13.510Z,56.44
2022-09-21T11:31:32.476Z,56.30
2022-09-21T11:34:40.350Z,56.47
2022-09-21T11:38:04.676Z,56.42
2022-09-21T11:41:25.098Z,56.19
2022-09-21T11:44:55.328Z,56.20
2022-09-21T11:48:20.053Z,56.10
2022-09-21T11:51:38.722Z,55.87
2022-09-21T11:55:06.225Z,55.89
2022-09-21T11:58:21.333Z,55.88
2022-09-21T12:01:40.188Z,55.39
2022-09-21T12:04:55.754Z,55.46
2022-09-21T12:08:35.126Z,55.34
2022-09-21T12:12:05.700Z,55.28
2022-09-21T12:15:11.771Z,55.36
2022-09-21T12:18:27.505Z,55.55
2022-09-21T12:21:34.053Z,55.35
2022-09-21T12:24:43.122Z,55.44
2022-09-21T12:27:50.361Z,55.43
2022-09-21T12:31:00.648Z,55.57
2022-09-21T12:34:10.838Z,55.39
2022-09-21T12:37:18.888Z,55.60
2022-09-21T12:40:25.289Z,55.55
2022-09-21T12:43:43.429Z,55.49
2022-09-21T12:46:53.015Z,55.31
2022-09-21T12:50:01.762Z,55.51
2022-09-21T12:53:04.458Z,55.29
2022-09-21T12:56:10.720Z,55.27
2022-09-21T12:59:44.531Z,55.44
2022-09-21T13:02:54.767Z,55.42
2022-09-21T13:06:41.052Z,55.25
2022-09-21T13:09:46.217Z,55.11
2022-09-21T13:12:54.836Z,55.17
2022-09-21T13:15:59.262Z,55.25
2022-09-21T13:19:17.323Z,55.10
2022-09-21T13:22:26.995Z,55.00
2022-09-21T13:25:32.557Z,54.70
2022-09-21T13:29:00.319Z,54.70
2022-09-21T13:32:14.167Z,54.64
2022-09-21T13:35:51.096Z,54.73
2022-09-21T13:38:52.588Z,54.57
2022-09-21T13:42:04.642Z,54.43
2022-09-21T13:45:14.859Z,54.37
2022-09-21T13:48:26.127Z,54.48
2022-09-21T13:51:33.260Z,54.31
2022-09-21T13:54:37.914Z,54.53
2022-09-21T13:57:48.274Z,54.51
2022-09-21T14:00:49.833Z,54.36
2022-09-21T14:03:59.289Z,54.39
2022-09-21T14:07:06.023Z,54.34
2022-09-21T14:10:10.105Z,54.46
2022-09-21T14:13:25.460Z,54.48
2022-09-21T14:16:57.742Z,54.43
2022-09-21T14:19:59.955Z,54.68
2022-09-21T14:23:14.946Z,54.61
2022-09-21T14:26:36.433Z,54.53
2022-09-21T14:29:53.190Z,54.44
2022-09-21T14:33:00.958Z,54.60
2022-09-21T14:36:08.961Z,54.33
2022-09-21T14:39:25.011Z,54.54
2022-09-21T14:42:28.936Z,54.08
2022-09-21T14:45:36.519Z,53.93
2022-09-21T14:48:54.275Z,53.89
2022-09-21T14:52:13.477Z,54.04
2022-09-21T14:55:47.455Z,53.78
2022-09-21T14:59:23.348Z,53.87
2022-09-21T15:02:29.404Z,53.54
2022-09-21T15:05:48.641Z,53.75
2022-09-21T15:09:43.260Z,53.59
2022-09-21T15:12:55.424Z,53.46
2022-09-21T15:16:02.509Z,53.40
2022-09-21T15:19:18.125Z,53.32
2022-09-21T15:22:22.370Z,53.39
2022-09-21T15:25:27.872Z,53.23
2022-09-21T15:28:57.976Z,53.26
2022-09-21T15:31:59.120Z,53.13
2022-09-21T15:35:02.290Z,52.98
2022-09-21T15:38:04.434Z,53.05
2022-09-21T15:41:09.627Z,53.16
2022-09-21T15:44:26.555Z,52.97
2022-09-21T15:47:30.113Z,52.92
2022-09-21T15:50:32.038Z,52.77
2022-09-21T15:53:39.859Z,52.89
2022-09-21T15:56:44.481Z,52.89
2022-09-21T15:59:47.383Z,52.78
2022-09-21T16:03:16.843Z,52.61
2022-09-21T16:06:27.678Z,52.71
2022-09-21T16:09:38.800Z,52.76
2022-09-21T16:12:43.039Z,52.54
2022-09-21T16:16:00.790Z,52.69
2022-09-21T16:19:02.467Z,52.71
2022-09-21T16:22:04.857Z,52.58
2022-09-21T16:25:25.547Z,52.63
2022-09-21T16:28:41.479Z,52.68
2022-09-21T16:31:46.324Z,52.63
2022-09-21T16:34:53.215Z,52.49
2022-09-21T16:37:58.852Z,52.50
2022-09-21T16:41:02.437Z,52.60
2022-09-21T16:44:04.235Z,52.78
2022-09-21T16:47:12.838Z,52.71
2022-09-21T16:50:19.007Z,52.63
2022-09-21T16:53:21.819Z,52.71
2022-09-21T16:56:23.417Z,52.87
2022-09-21T16:59:25.860Z,52.93
2022-09-21T17:02:27.466Z,52.76
2022-09-21T17:05:29.067Z,52.96
2022-09-21T17:08:31.960Z,52.81
2022-09-21T17:11:33.721Z,52.94
2022-09-21T17:14:36.815Z,52.95
2022-09-21T17:17:38.659Z,52.74
2022-09-21T17:20:43.792Z,52.94
2022-09-21T17:23:45.411Z,53.27
2022-09-21T17:26:47.111Z,53.05
2022-09-21T17:29:49.882Z,53.05
2022-09-21T17:32:52.232Z,53.41
2022-09-21T17:35:55.238Z,53.08
2022-09-21T17:38:58.117Z,53.33
2022-09-21T17:42:04.114Z,53.08
2022-09-21T17:45:28.590Z,53.11
2022-09-21T17:48:33.890Z,53.22
2022-09-21T17:51:54.748Z,53.20
2022-09-21T17:54:57.292Z,53.02
2022-09-21T17:58:07.802Z,52.87
2022-09-21T18:01:18.613Z,52.96
2022-09-21T18:04:20.547Z,53.37
2022-09-21T18:07:23.584Z,53.08
2022-09-21T18:10:26.227Z,53.25
2022-09-21T18:13:44.559Z,53.13
2022-09-21T18:16:59.103Z,53.20
2022-09-21T18:20:10.535Z,53.11
2022-09-21T18:23:22.360Z,53.53
2022-09-21T18:26:25.027Z,53.05
2022-09-21T18:29:41.096Z,53.01
2022-09-21T18:32:58.390Z,53.06
2022-09-21T18:36:14.740Z,53.28
2022-09-21T18:39:35.295Z,53.26
2022-09-21T18:42:40.448Z,53.38
2022-09-21T18:45:57.671Z,53.56
2022-09-21T18:49:06.306Z,53.41
2022-09-21T18:52:26.380Z,53.55
2022-09-21T18:55:32.833Z,53.31
2022-09-21T18:58:34.789Z,53.51
2022-09-21T19:01:36.896Z,53.43
2022-09-21T19:04:38.808Z,53.51
2022-09-21T19:08:20.033Z,53.44
2022-09-21T19:11:43.825Z,53.32
2022-09-21T19:15:02.399Z,53.59
2022-09-21T19:18:15.072Z,53.44
2022-09-21T19:21:31.628Z,53.44
2022-09-21T19:24:45.328Z,53.56
2022-09-21T19:27:50.865Z,53.45
2022-09-21T19:31:00.480Z,53.31
2022-09-21T19:34:14.487Z,53.60
2022-09-21T19:37:16.123Z,53.41
2022-09-21T19:40:20.021Z,53.42
2022-09-21T19:43:48.735Z,53.50
2022-09-21T19:47:06.517Z,53.69
2022-09-21T19:50:18.348Z,53.42
2022-09-21T19:53:39.789Z,53.41
2022-09-21T19:57:08.225Z,53.49
2022-09-21T20:00:13.892Z,53.42
2022-09-21T20:03:31.252Z,53.48
2022-09-21T20:06:44.706Z,53.72
2022-09-21T20:10:04.241Z,53.59
2022-09-21T20:13:21.996Z,53.63
2022-09-21T20:16:51.243Z,53.72
2022-09-21T20:20:26.746Z,53.59
2022-09-21T20:23:30.263Z,53.71
2022-09-21T20:26:32.014Z,53.74
2022-09-21T20:29:34.157Z,53.65
2022-09-21T20:32:37.714Z,53.71
2022-09-21T20:35:39.233Z,53.77
2022-09-21T20:38:44.150Z,53.77
2022-09-21T20:41:45.903Z,53.64
2022-09-21T20:44:47.493Z,53.77
2022-09-21T20:47:50.139Z,53.72
2022-09-21T20:50:52.363Z,53.68
2022-09-21T20:53:54.147Z,53.71
2022-09-21T20:56:55.732Z,53.77
2022-09-21T20:59:57.712Z,53.80
2022-09-21T21:02:59.680Z,53.85
2022-09-21T21:06:18.878Z,53.98
2022-09-21T21:09:20.672Z,53.99
2022-09-21T21:12:22.223Z,53.97
2022-09-21T21:15:23.781Z,53.97
2022-09-21T21:18:25.816Z,53.84
2022-09-21T21:21:27.419Z,54.00
2022-09-21T21:24:40.936Z,53.93
2022-09-21T21:27:42.742Z,53.86
2022-09-21T21:30:44.277Z,54.01
2022-09-21T21:33:45.812Z,54.09
2022-09-21T21:36:47.462Z,53.92
2022-09-21T21:39:49.183Z,54.04
2022-09-21T21:42:50.780Z,54.10
2022-09-21T21:45:53.407Z,54.03
2022-09-21T21:48:54.972Z,54.07
2022-09-21T21:51:57.576Z,54.03
2022-09-21T21:54:59.157Z,54.02
2022-09-21T21:58:00.688Z,54.05
2022-09-21T22:01:14.042Z,53.91
2022-09-21T22:04:15.876Z,53.99
2022-09-21T22:07:17.488Z,54.02
2022-09-21T22:10:19.067Z,54.14
2022-09-21T22:13:20.832Z,53.99
2022-09-21T22:16:24.793Z,54.03
2022-09-21T22:19:26.559Z,54.12
2022-09-21T22:22:29.532Z,53.98
2022-09-21T22:25:31.089Z,54.22
2022-09-21T22:28:34.573Z,54.08
2022-09-21T22:31:39.480Z,54.17
2022-09-21T22:34:41.039Z,54.20
2022-09-21T22:37:42.627Z,54.32
2022-09-21T22:40:45.738Z,54.49
2022-09-21T22:43:48.712Z,54.58
2022-09-21T22:46:50.280Z,54.52
2022-09-21T22:49:51.848Z,54.70
2022-09-21T22:52:53.332Z,54.76
2022-09-21T22:56:08.245Z,54.79
2022-09-21T22:59:09.948Z,54.79
2022-09-21T23:02:11.641Z,54.75
2022-09-21T23:05:13.303Z,54.94
2022-09-21T23:08:14.836Z,54.96
2022-09-21T23:11:22.777Z,54.91
2022-09-21T23:14:24.368Z,54.86
2022-09-21T23:17:25.900Z,55.01
2022-09-21T23:20:27.385Z,54.97
2022-09-21T23:23:29.932Z,55.09
2022-09-21T23:26:32.213Z,54.85
2022-09-21T23:29:33.797Z,55.05
2022-09-21T23:32:35.323Z,55.08
2022-09-21T23:35:41.523Z,55.09
2022-09-21T23:38:44.084Z,55.15
2022-09-21T23:41:45.728Z,54.99
2022-09-21T23:44:47.276Z,55.13
2022-09-21T23:47:48.863Z,55.15
2022-09-21T23:50:51.048Z,55.17
2022-09-21T23:53:52.933Z,55.21
2022-09-21T23:56:54.547Z,55.38
2022-09-21T23:59:56.098Z,55.25
